Terminal Aerodrome Forecast
Issued by NWS Kansas City/Pleasant Hill, MO

Home | Current Version | Previous Version | Text Only | Print | Product List | Glossary On
Versions: 1 2 3 4 5 6 7 8 9 10 11 12 13 14 15 16 17 18 19
548
FTUS43 KEAX 221737
TAFMCI
TAF
KMCI 221737Z 2218/2318 22012KT P6SM -RASN OVC010
      TEMPO 2218/2222 4SM BR OVC008
     FM222200 28016G27KT 5SM -RASN OVC010
     FM230300 31016G29KT P6SM VCSH OVC015
     FM230900 31012KT P6SM BKN020=

USA.gov is the U.S. government's official web portal to all federal, state and local government web resources and services.